createdAt,value
2018-01-13T00:00:39.590Z,7.48
2018-01-13T00:03:07.935Z,7.51
2018-01-13T00:05:36.277Z,7.59
2018-01-13T00:08:04.620Z,7.69
2018-01-13T00:10:32.958Z,7.71
2018-01-13T00:13:01.293Z,7.69
2018-01-13T00:15:29.640Z,7.63
2018-01-13T00:17:57.980Z,7.65
2018-01-13T00:20:27.820Z,7.58
2018-01-13T00:22:56.157Z,7.60
2018-01-13T00:25:24.512Z,7.41
2018-01-13T00:27:53.030Z,7.35
2018-01-13T00:30:21.365Z,7.50
2018-01-13T00:32:49.707Z,7.30
2018-01-13T00:35:18.793Z,7.44
2018-01-13T00:37:48.300Z,7.42
2018-01-13T00:40:17.010Z,7.31
2018-01-13T00:42:45.378Z,7.35
2018-01-13T00:45:13.723Z,7.45
2018-01-13T00:47:42.054Z,7.55
2018-01-13T00:50:10.380Z,7.33
2018-01-13T00:52:38.708Z,7.23
2018-01-13T00:55:07.031Z,7.39
2018-01-13T00:57:35.373Z,7.51
2018-01-13T01:00:04.563Z,7.50
2018-01-13T01:02:32.887Z,7.53
2018-01-13T01:05:01.270Z,7.46
2018-01-13T01:07:29.604Z,7.55
2018-01-13T01:09:57.940Z,7.66
2018-01-13T01:12:26.280Z,7.63
2018-01-13T01:14:54.616Z,7.69
2018-01-13T01:17:22.952Z,7.70
2018-01-13T01:19:51.298Z,7.31
2018-01-13T01:22:19.645Z,7.62
2018-01-13T01:24:48.757Z,7.65
2018-01-13T01:27:17.089Z,7.67
2018-01-13T01:29:45.432Z,7.48
2018-01-13T01:32:13.776Z,7.24
2018-01-13T01:34:42.154Z,7.37
2018-01-13T01:37:10.498Z,7.38
2018-01-13T01:39:38.813Z,7.35
2018-01-13T01:42:07.156Z,7.39
2018-01-13T01:44:35.528Z,7.43
2018-01-13T01:47:03.862Z,7.38
2018-01-13T01:49:32.201Z,7.41
2018-01-13T01:52:00.553Z,7.49
2018-01-13T01:54:30.190Z,7.43
2018-01-13T01:56:58.523Z,7.53
2018-01-13T01:59:26.854Z,7.64
2018-01-13T02:01:55.964Z,7.71
2018-01-13T02:04:24.290Z,7.64
2018-01-13T02:06:52.623Z,7.76
2018-01-13T02:09:20.972Z,7.81
2018-01-13T02:11:50.076Z,7.82
2018-01-13T02:14:18.425Z,7.74
2018-01-13T02:16:46.746Z,7.74
2018-01-13T02:19:15.448Z,7.72
2018-01-13T02:21:43.767Z,7.70
2018-01-13T02:24:12.102Z,7.78
2018-01-13T02:26:40.824Z,7.84
2018-01-13T02:29:09.150Z,7.75
2018-01-13T02:31:37.482Z,7.84
2018-01-13T02:34:06.079Z,7.85
2018-01-13T02:36:34.420Z,7.76
2018-01-13T02:39:02.745Z,7.79
2018-01-13T02:41:31.860Z,7.81
2018-01-13T02:44:00.195Z,7.82
2018-01-13T02:46:28.533Z,7.83
2018-01-13T02:48:56.885Z,7.86
2018-01-13T02:51:25.989Z,7.70
2018-01-13T02:53:54.313Z,7.63
2018-01-13T02:56:22.633Z,7.73
2018-01-13T02:58:51.703Z,7.79
2018-01-13T03:01:20.013Z,7.80
2018-01-13T03:03:48.333Z,7.81
2018-01-13T03:06:16.679Z,7.74
2018-01-13T03:08:45.024Z,7.70
2018-01-13T03:11:14.128Z,7.56
2018-01-13T03:13:43.221Z,7.52
2018-01-13T03:16:11.568Z,7.60
2018-01-13T03:18:40.920Z,7.64
2018-01-13T03:21:09.240Z,7.71
2018-01-13T03:23:37.572Z,7.52
2018-01-13T03:26:05.915Z,7.58
2018-01-13T03:28:35.385Z,7.58
2018-01-13T03:31:03.735Z,7.53
2018-01-13T03:33:32.070Z,7.49
2018-01-13T03:36:00.399Z,7.52
2018-01-13T03:38:34.526Z,7.30
2018-01-13T03:41:02.868Z,6.91
2018-01-13T03:43:31.200Z,6.96
2018-01-13T03:45:59.544Z,6.91
2018-01-13T03:48:27.892Z,7.13
2018-01-13T03:50:56.242Z,7.29
2018-01-13T03:53:24.584Z,7.30
2018-01-13T03:55:52.919Z,7.28
2018-01-13T03:58:22.026Z,7.40
2018-01-13T04:00:50.363Z,7.40
2018-01-13T04:03:18.707Z,7.36
2018-01-13T04:05:47.034Z,7.35
2018-01-13T04:08:15.349Z,7.10
2018-01-13T04:10:43.738Z,7.15
2018-01-13T04:13:12.086Z,7.23
2018-01-13T04:15:40.428Z,7.24
2018-01-13T04:18:08.794Z,7.28
2018-01-13T04:20:37.118Z,7.20
2018-01-13T04:23:05.438Z,7.08
2018-01-13T04:25:33.804Z,7.21
2018-01-13T04:28:02.145Z,7.22
2018-01-13T04:30:31.249Z,7.18
2018-01-13T04:32:59.592Z,7.23
2018-01-13T04:35:27.933Z,7.32
2018-01-13T04:37:56.276Z,7.32
2018-01-13T04:40:25.375Z,7.38
2018-01-13T04:42:53.716Z,7.28
2018-01-13T04:45:22.061Z,7.16
2018-01-13T04:47:50.381Z,7.27
2018-01-13T04:50:18.730Z,7.30
2018-01-13T04:52:47.846Z,7.37
2018-01-13T04:55:16.179Z,7.35
2018-01-13T04:57:44.518Z,7.41
2018-01-13T05:00:12.849Z,7.45
2018-01-13T05:02:41.167Z,7.47
2018-01-13T05:05:09.504Z,7.42
2018-01-13T05:07:38.039Z,7.46
2018-01-13T05:10:06.384Z,7.47
2018-01-13T05:12:35.523Z,7.44
2018-01-13T05:15:04.610Z,7.55
2018-01-13T05:17:32.943Z,7.30
2018-01-13T05:20:01.272Z,7.20
2018-01-13T05:22:29.612Z,7.22
2018-01-13T05:24:57.961Z,7.14
2018-01-13T05:27:26.296Z,7.25
2018-01-13T05:29:55.024Z,7.22
2018-01-13T05:32:23.366Z,7.15
2018-01-13T05:34:52.473Z,7.12
2018-01-13T05:37:20.799Z,7.17
2018-01-13T05:39:49.128Z,7.23
2018-01-13T05:42:18.225Z,6.99
2018-01-13T05:44:46.555Z,7.10
2018-01-13T05:47:14.879Z,6.77
2018-01-13T05:49:43.975Z,6.79
2018-01-13T05:52:12.864Z,6.97
2018-01-13T05:54:41.988Z,6.97
2018-01-13T05:57:10.324Z,7.09
2018-01-13T05:59:39.433Z,7.13
2018-01-13T06:02:07.755Z,7.05
2018-01-13T06:04:36.105Z,6.96
2018-01-13T06:07:04.437Z,7.07
2018-01-13T06:09:32.779Z,7.07
2018-01-13T06:12:01.121Z,7.13
2018-01-13T06:14:30.228Z,7.21
2018-01-13T06:16:58.616Z,7.08
2018-01-13T06:19:26.935Z,7.25
2018-01-13T06:21:55.248Z,7.16
2018-01-13T06:24:23.584Z,7.02
2018-01-13T06:26:51.921Z,7.07
2018-01-13T06:29:20.273Z,7.08
2018-01-13T06:31:48.607Z,6.97
2018-01-13T06:34:17.708Z,7.07
2018-01-13T06:36:47.221Z,7.13
2018-01-13T06:39:15.621Z,7.25
2018-01-13T06:41:45.498Z,7.26
2018-01-13T06:44:13.825Z,7.27
2018-01-13T06:46:43.414Z,7.22
2018-01-13T06:49:11.742Z,7.22
2018-01-13T06:51:40.067Z,7.27
2018-01-13T06:54:08.397Z,7.24
2018-01-13T06:56:36.763Z,7.30
2018-01-13T06:59:05.103Z,7.14
2018-01-13T07:01:33.431Z,7.19
2018-01-13T07:04:01.779Z,6.97
2018-01-13T07:06:30.861Z,7.08
2018-01-13T07:08:59.190Z,6.99
2018-01-13T07:11:27.749Z,7.04
2018-01-13T07:13:56.082Z,7.17
2018-01-13T07:16:24.420Z,7.17
2018-01-13T07:18:52.760Z,7.11
2018-01-13T07:21:21.080Z,7.20
2018-01-13T07:23:49.410Z,7.23
2018-01-13T07:26:19.522Z,7.24
2018-01-13T07:28:47.843Z,7.22
2018-01-13T07:31:16.178Z,7.20
2018-01-13T07:33:44.497Z,7.11
2018-01-13T07:36:12.841Z,7.14
2018-01-13T07:38:42.740Z,7.11
2018-01-13T07:41:11.091Z,7.08
2018-01-13T07:43:39.431Z,7.14
2018-01-13T07:46:07.768Z,7.18
2018-01-13T07:48:36.101Z,7.12
2018-01-13T07:51:04.441Z,7.21
2018-01-13T07:53:32.739Z,7.27
2018-01-13T07:56:01.041Z,7.29
2018-01-13T07:58:29.348Z,7.06
2018-01-13T08:00:57.670Z,6.95
2018-01-13T08:03:26.006Z,6.67
2018-01-13T08:05:54.352Z,6.81
2018-01-13T08:08:22.677Z,6.58
2018-01-13T08:10:51.017Z,6.69
2018-01-13T08:13:19.917Z,6.89
2018-01-13T08:15:48.246Z,6.94
2018-01-13T08:18:16.583Z,6.94
2018-01-13T08:20:44.910Z,7.01
2018-01-13T08:23:13.223Z,6.05
2018-01-13T08:25:41.574Z,5.67
2018-01-13T08:28:09.902Z,6.12
2018-01-13T08:30:38.241Z,6.34
2018-01-13T08:33:06.558Z,6.51
2018-01-13T08:35:35.950Z,6.68
2018-01-13T08:38:04.656Z,6.77
2018-01-13T08:40:33.006Z,6.97
2018-01-13T08:43:01.330Z,7.12
2018-01-13T08:45:29.678Z,7.25
2018-01-13T08:47:58.002Z,7.28
2018-01-13T08:50:26.348Z,7.28
2018-01-13T08:52:55.434Z,7.35
2018-01-13T08:55:23.762Z,7.43
2018-01-13T08:57:52.087Z,7.45
2018-01-13T09:00:20.428Z,7.54
2018-01-13T09:02:48.761Z,7.68
2018-01-13T09:05:17.854Z,7.72
2018-01-13T09:07:46.183Z,7.81
2018-01-13T09:10:14.742Z,7.88
2018-01-13T09:12:43.095Z,7.82
2018-01-13T09:15:11.428Z,7.93
2018-01-13T09:17:39.812Z,7.84
2018-01-13T09:20:08.125Z,7.94
2018-01-13T09:22:36.472Z,7.93
2018-01-13T09:25:05.626Z,7.83
2018-01-13T09:27:33.954Z,7.97
2018-01-13T09:30:02.292Z,7.99
2018-01-13T09:32:30.631Z,7.97
2018-01-13T09:34:58.998Z,8.02
2018-01-13T09:37:27.324Z,8.05
2018-01-13T09:39:55.669Z,8.09
2018-01-13T09:42:24.753Z,8.06
2018-01-13T09:44:53.077Z,7.86
2018-01-13T09:47:21.390Z,7.79
2018-01-13T09:49:51.481Z,7.72
2018-01-13T09:52:19.829Z,7.81
2018-01-13T09:54:48.153Z,7.83
2018-01-13T09:57:16.473Z,7.60
2018-01-13T09:59:45.868Z,7.46
2018-01-13T10:02:14.957Z,7.38
2018-01-13T10:04:43.303Z,7.40
2018-01-13T10:07:11.635Z,7.48
2018-01-13T10:09:39.954Z,7.44
2018-01-13T10:12:08.266Z,7.36
2018-01-13T10:14:37.530Z,7.29
2018-01-13T10:17:05.841Z,7.09
2018-01-13T10:19:34.168Z,7.32
2018-01-13T10:22:02.511Z,7.28
2018-01-13T10:24:30.832Z,7.38
2018-01-13T10:26:59.190Z,7.32
2018-01-13T10:29:27.533Z,7.52
2018-01-13T10:31:56.666Z,7.53
2018-01-13T10:34:25.040Z,7.53
2018-01-13T10:36:53.384Z,7.59
2018-01-13T10:39:21.728Z,7.55
2018-01-13T10:41:51.036Z,7.58
2018-01-13T10:44:19.389Z,7.60
2018-01-13T10:46:48.008Z,7.62
2018-01-13T10:49:16.336Z,7.32
2018-01-13T10:51:44.677Z,7.60
2018-01-13T10:54:14.176Z,7.53
2018-01-13T10:56:43.341Z,7.56
2018-01-13T10:59:11.700Z,7.75
2018-01-13T11:01:40.009Z,7.79
2018-01-13T11:04:08.331Z,7.74
2018-01-13T11:06:36.707Z,7.74
2018-01-13T11:09:05.047Z,7.79
2018-01-13T11:11:33.369Z,7.63
2018-01-13T11:14:01.716Z,7.54
2018-01-13T11:16:30.052Z,7.57
2018-01-13T11:18:58.384Z,7.56
2018-01-13T11:21:26.716Z,7.10
2018-01-13T11:23:55.060Z,7.14
2018-01-13T11:26:23.390Z,7.02
2018-01-13T11:28:51.706Z,6.93
2018-01-13T11:31:20.044Z,7.07
2018-01-13T11:33:48.386Z,6.82
2018-01-13T11:36:16.715Z,7.06
2018-01-13T11:38:45.057Z,7.34
2018-01-13T11:41:14.160Z,7.46
2018-01-13T11:43:42.503Z,7.34
2018-01-13T11:46:10.844Z,7.38
2018-01-13T11:48:39.624Z,7.37
2018-01-13T11:51:07.960Z,7.41
2018-01-13T11:53:36.270Z,7.23
2018-01-13T11:56:04.609Z,7.23
2018-01-13T11:58:32.952Z,7.03
2018-01-13T12:01:01.277Z,7.02
2018-01-13T12:03:29.607Z,7.01
2018-01-13T12:05:59.181Z,6.86
2018-01-13T12:08:27.499Z,7.19
2018-01-13T12:10:55.822Z,7.02
2018-01-13T12:13:24.140Z,6.88
2018-01-13T12:15:52.485Z,6.89
2018-01-13T12:18:20.836Z,6.72
2018-01-13T12:20:49.173Z,6.87
2018-01-13T12:23:18.270Z,6.88
2018-01-13T12:25:46.602Z,7.12
2018-01-13T12:28:14.921Z,7.11
2018-01-13T12:30:44.024Z,7.18
2018-01-13T12:33:12.346Z,7.42
2018-01-13T12:35:40.677Z,7.59
2018-01-13T12:38:09.758Z,7.74
2018-01-13T12:40:38.084Z,7.71
2018-01-13T12:43:06.403Z,7.28
2018-01-13T12:45:34.735Z,7.29
2018-01-13T12:48:03.935Z,7.50
2018-01-13T12:50:32.242Z,7.59
2018-01-13T12:53:00.579Z,7.68
2018-01-13T12:55:28.919Z,7.57
2018-01-13T12:57:57.251Z,7.58
2018-01-13T13:00:25.618Z,7.57
2018-01-13T13:02:53.933Z,7.60
2018-01-13T13:05:22.270Z,7.62
2018-01-13T13:07:50.619Z,7.35
2018-01-13T13:10:19.963Z,7.28
2018-01-13T13:12:48.400Z,7.27
2018-01-13T13:15:16.718Z,7.40
2018-01-13T13:17:45.038Z,7.26
2018-01-13T13:20:13.365Z,7.33
2018-01-13T13:22:41.740Z,7.28
2018-01-13T13:25:10.811Z,7.20
2018-01-13T13:27:39.152Z,7.36
2018-01-13T13:30:07.479Z,7.41
2018-01-13T13:32:35.856Z,7.31
2018-01-13T13:35:04.178Z,7.45
2018-01-13T13:37:32.506Z,7.45
2018-01-13T13:40:00.839Z,7.58
2018-01-13T13:42:29.148Z,7.25
2018-01-13T13:44:57.469Z,6.99
2018-01-13T13:47:25.797Z,6.97
2018-01-13T13:49:54.892Z,7.03
2018-01-13T13:52:23.205Z,6.95
2018-01-13T13:54:51.522Z,7.04
2018-01-13T13:57:19.855Z,6.99
2018-01-13T13:59:50.465Z,6.84
2018-01-13T14:02:16.522Z,6.96
2018-01-13T14:04:44.846Z,6.96
2018-01-13T14:07:13.177Z,7.08
2018-01-13T14:09:41.522Z,7.20
2018-01-13T14:12:10.621Z,6.90
2018-01-13T14:14:38.949Z,7.04
2018-01-13T14:17:07.300Z,7.13
2018-01-13T14:19:35.626Z,7.12
2018-01-13T14:22:03.967Z,7.15
2018-01-13T14:24:32.584Z,7.29
2018-01-13T14:27:00.902Z,7.24
2018-01-13T14:29:29.240Z,7.30
2018-01-13T14:31:57.570Z,7.37
2018-01-13T14:34:25.915Z,7.39
2018-01-13T14:36:55.011Z,7.37
2018-01-13T14:39:23.342Z,7.38
2018-01-13T14:41:51.680Z,7.29
2018-01-13T14:44:20.025Z,7.30
2018-01-13T14:46:48.334Z,7.28
2018-01-13T14:49:16.650Z,7.25
2018-01-13T14:51:44.970Z,7.32
2018-01-13T14:54:14.291Z,7.11
2018-01-13T14:56:42.614Z,7.00
2018-01-13T14:59:10.952Z,7.00
2018-01-13T15:01:39.284Z,7.04
2018-01-13T15:04:07.597Z,6.96
2018-01-13T15:06:36.917Z,6.90
2018-01-13T15:09:05.258Z,7.01
2018-01-13T15:11:33.600Z,7.02
2018-01-13T15:14:01.923Z,7.08
2018-01-13T15:16:30.250Z,6.85
2018-01-13T15:18:58.574Z,6.73
2018-01-13T15:21:27.683Z,6.71
2018-01-13T15:23:56.007Z,6.55
2018-01-13T15:26:24.362Z,6.55
2018-01-13T15:28:52.706Z,6.57
2018-01-13T15:31:21.807Z,6.65
2018-01-13T15:33:50.130Z,6.65
2018-01-13T15:36:18.484Z,6.49
2018-01-13T15:38:46.914Z,6.33
2018-01-13T15:41:16.108Z,6.33
2018-01-13T15:43:44.444Z,6.35
2018-01-13T15:46:13.108Z,6.19
2018-01-13T15:48:41.456Z,6.20
2018-01-13T15:51:09.821Z,6.26
2018-01-13T15:53:38.155Z,6.09
2018-01-13T15:56:06.483Z,6.28
2018-01-13T15:58:34.828Z,6.24
2018-01-13T16:01:03.155Z,6.27
2018-01-13T16:03:32.232Z,6.32
2018-01-13T16:06:00.538Z,6.34
2018-01-13T16:08:29.625Z,6.41
2018-01-13T16:10:58.714Z,6.50
2018-01-13T16:13:27.045Z,6.41
2018-01-13T16:15:55.378Z,6.20
2018-01-13T16:18:23.724Z,6.29
2018-01-13T16:20:52.083Z,6.42
2018-01-13T16:23:20.432Z,6.46
2018-01-13T16:25:48.776Z,6.44
2018-01-13T16:28:17.866Z,6.39
2018-01-13T16:30:47.046Z,6.40
2018-01-13T16:33:15.376Z,6.44
2018-01-13T16:35:43.786Z,6.28
2018-01-13T16:38:12.160Z,6.27
2018-01-13T16:40:41.078Z,6.14
2018-01-13T16:43:09.507Z,6.04
2018-01-13T16:45:37.994Z,5.92
2018-01-13T16:48:06.559Z,6.09
2018-01-13T16:50:34.989Z,6.00
2018-01-13T16:53:03.402Z,6.04
2018-01-13T16:55:32.769Z,6.06
2018-01-13T16:58:01.187Z,6.05
2018-01-13T17:00:29.522Z,6.00
2018-01-13T17:02:57.870Z,5.77
2018-01-13T17:05:26.263Z,5.79
2018-01-13T17:07:54.613Z,5.93
2018-01-13T17:10:23.076Z,5.82
2018-01-13T17:12:51.482Z,5.97
2018-01-13T17:15:19.970Z,5.94
2018-01-13T17:17:48.838Z,5.95
2018-01-13T17:20:17.241Z,6.00
2018-01-13T17:22:45.632Z,5.97
2018-01-13T17:25:14.157Z,5.93
2018-01-13T17:27:42.602Z,5.94
2018-01-13T17:30:11.009Z,5.45
2018-01-13T17:32:39.395Z,5.60
2018-01-13T17:35:07.784Z,5.43
2018-01-13T17:37:36.229Z,5.61
2018-01-13T17:40:04.673Z,5.60
2018-01-13T17:42:33.090Z,5.59
2018-01-13T17:45:01.762Z,5.58
2018-01-13T17:47:31.072Z,5.43
2018-01-13T17:49:59.489Z,5.52
2018-01-13T17:52:28.122Z,5.54
2018-01-13T17:54:56.633Z,4.98
2018-01-13T17:57:25.252Z,5.13
2018-01-13T17:59:53.650Z,5.25
2018-01-13T18:02:22.142Z,5.15
2018-01-13T18:04:50.836Z,4.92
2018-01-13T18:07:19.276Z,5.07
2018-01-13T18:09:50.871Z,5.11
2018-01-13T18:12:19.369Z,5.07
2018-01-13T18:14:48.120Z,4.96
2018-01-13T18:17:16.605Z,4.82
2018-01-13T18:19:45.054Z,4.78
2018-01-13T18:22:13.530Z,4.87
2018-01-13T18:24:42.072Z,4.71
2018-01-13T18:27:10.613Z,4.92
2018-01-13T18:29:39.539Z,4.79
2018-01-13T18:32:08.265Z,4.85
2018-01-13T18:34:37.199Z,4.75
2018-01-13T18:37:06.403Z,4.90
2018-01-13T18:39:35.402Z,5.04
2018-01-13T18:42:04.155Z,5.17
2018-01-13T18:44:32.991Z,5.06
2018-01-13T18:47:03.602Z,4.89
2018-01-13T18:49:33.503Z,4.87
2018-01-13T18:52:03.316Z,5.03
2018-01-13T18:54:33.904Z,5.03
2018-01-13T18:57:03.789Z,5.02
2018-01-13T18:59:33.616Z,4.90
2018-01-13T19:02:03.267Z,5.00
2018-01-13T19:04:33.066Z,4.98
2018-01-13T19:07:02.651Z,4.80
2018-01-13T19:09:32.623Z,4.91
2018-01-13T19:12:02.515Z,5.09
2018-01-13T19:14:32.322Z,5.07
2018-01-13T19:17:02.191Z,5.10
2018-01-13T19:19:31.813Z,4.81
2018-01-13T19:22:01.469Z,5.00
2018-01-13T19:24:31.217Z,5.01
2018-01-13T19:27:00.998Z,4.66
2018-01-13T19:29:30.808Z,4.92
2018-01-13T19:32:01.481Z,5.00
2018-01-13T19:34:31.296Z,5.04
2018-01-13T19:37:01.164Z,4.99
2018-01-13T19:39:30.994Z,4.97
2018-01-13T19:42:00.745Z,5.09
2018-01-13T19:44:30.617Z,5.18
2018-01-13T19:47:00.627Z,5.06
2018-01-13T19:49:30.477Z,5.05
2018-01-13T19:52:00.391Z,4.95
2018-01-13T19:54:30.392Z,4.83
2018-01-13T19:57:00.297Z,4.57
2018-01-13T19:59:30.281Z,4.91
2018-01-13T20:02:00.118Z,5.01
2018-01-13T20:04:29.965Z,4.73
2018-01-13T20:06:59.924Z,4.83
2018-01-13T20:09:34.992Z,4.96
2018-01-13T20:12:04.948Z,4.96
2018-01-13T20:14:34.805Z,4.95
2018-01-13T20:17:04.642Z,4.71
2018-01-13T20:19:34.522Z,4.70
2018-01-13T20:22:04.337Z,4.66
2018-01-13T20:24:34.306Z,4.70
2018-01-13T20:27:04.256Z,4.79
2018-01-13T20:29:34.175Z,4.79
2018-01-13T20:32:04.030Z,4.54
2018-01-13T20:34:33.858Z,4.58
2018-01-13T20:37:03.723Z,4.47
2018-01-13T20:39:33.722Z,4.48
2018-01-13T20:42:03.734Z,4.38
2018-01-13T20:44:33.598Z,4.46
2018-01-13T20:47:03.533Z,4.61
2018-01-13T20:49:33.405Z,4.57
2018-01-13T20:52:03.310Z,4.30
2018-01-13T20:54:33.292Z,4.23
2018-01-13T20:57:03.168Z,4.31
2018-01-13T20:59:33.218Z,4.41
2018-01-13T21:02:03.063Z,4.47
2018-01-13T21:04:33.848Z,4.15
2018-01-13T21:07:03.718Z,4.38
2018-01-13T21:09:34.408Z,4.36
2018-01-13T21:12:04.411Z,4.43
2018-01-13T21:14:34.385Z,4.13
2018-01-13T21:17:04.213Z,4.15
2018-01-13T21:19:34.115Z,4.00
2018-01-13T21:22:04.024Z,4.17
2018-01-13T21:24:34.015Z,4.13
2018-01-13T21:27:04.300Z,4.10
2018-01-13T21:29:34.157Z,4.09
2018-01-13T21:32:04.042Z,4.17
2018-01-13T21:34:33.884Z,4.16
2018-01-13T21:37:04.567Z,4.24
2018-01-13T21:39:34.416Z,4.01
2018-01-13T21:42:04.234Z,3.96
2018-01-13T21:44:34.138Z,3.90
2018-01-13T21:47:04.001Z,3.86
2018-01-13T21:49:33.850Z,3.78
2018-01-13T21:52:03.757Z,3.72
2018-01-13T21:54:33.627Z,3.78
2018-01-13T21:57:03.519Z,3.70
2018-01-13T21:59:33.433Z,3.56
2018-01-13T22:02:03.884Z,3.68
2018-01-13T22:04:33.799Z,3.60
2018-01-13T22:07:03.699Z,3.37
2018-01-13T22:09:34.423Z,3.57
2018-01-13T22:12:04.268Z,3.60
2018-01-13T22:14:34.273Z,3.70
2018-01-13T22:17:04.207Z,3.80
2018-01-13T22:19:34.147Z,3.92
2018-01-13T22:22:03.974Z,3.85
2018-01-13T22:24:33.875Z,3.73
2018-01-13T22:27:03.736Z,3.61
2018-01-13T22:29:33.641Z,3.61
2018-01-13T22:32:03.531Z,3.74
2018-01-13T22:34:33.465Z,3.45
2018-01-13T22:37:03.354Z,3.32
2018-01-13T22:39:33.360Z,3.46
2018-01-13T22:42:03.319Z,3.56
2018-01-13T22:44:33.229Z,3.64
2018-01-13T22:47:03.137Z,3.68
2018-01-13T22:49:32.826Z,3.71
2018-01-13T22:52:02.681Z,3.65
2018-01-13T22:54:32.445Z,3.57
2018-01-13T22:57:02.216Z,3.70
2018-01-13T22:59:32.005Z,3.76
2018-01-13T23:02:01.673Z,3.77
2018-01-13T23:04:31.371Z,3.79
2018-01-13T23:07:00.927Z,3.75
2018-01-13T23:09:30.111Z,3.65
2018-01-13T23:11:58.732Z,3.72
2018-01-13T23:14:27.584Z,3.66
2018-01-13T23:16:55.968Z,3.78
2018-01-13T23:19:24.364Z,3.63
2018-01-13T23:21:52.799Z,3.49
2018-01-13T23:24:21.156Z,3.52
2018-01-13T23:26:49.505Z,3.42
2018-01-13T23:29:17.942Z,3.42
2018-01-13T23:31:46.309Z,3.48
2018-01-13T23:34:14.651Z,3.52
2018-01-13T23:36:44.056Z,3.69
2018-01-13T23:39:12.429Z,3.78
2018-01-13T23:41:40.801Z,3.82
2018-01-13T23:44:09.149Z,3.75
2018-01-13T23:46:38.253Z,3.78
2018-01-13T23:49:07.349Z,3.77
2018-01-13T23:51:36.440Z,3.47
2018-01-13T23:54:04.778Z,3.59
2018-01-13T23:56:33.132Z,3.49
2018-01-13T23:59:01.460Z,3.51
